Time;durP1;ratioP1;P1;durP2;ratioP2;P2;SDS_P1;SDS_P2;PMS_P1;PMS_P2;Temp;Humidity;BMP_temperature;BMP_pressure;BME280_temperature;BME280_humidity;BME280_pressure;Samples;Min_cycle;Max_cycle;Signal;HPM_P1;HPM_P2
2022/08/03 00:00:23;;;;;;;20.47;0.90;;;;;;;20.52;70.50;100223.28;5027958;28;20457;-49
2022/08/03 00:02:49;;;;;;;1.23;1.00;;;;;;;20.44;70.72;100226.53;5024766;28;20452;-47
2022/08/03 00:05:16;;;;;;;1.13;1.03;;;;;;;20.24;71.36;100219.78;5020349;28;20467;-50
2022/08/03 00:07:42;;;;;;;1.43;1.10;;;;;;;20.22;71.06;100216.34;5023611;28;20831;-49
2022/08/03 00:10:11;;;;;;;1.20;0.97;;;;;;;20.16;71.60;100222.16;5027495;28;20453;-48
2022/08/03 00:12:37;;;;;;;0.87;0.87;;;;;;;20.31;71.24;100229.19;5024910;28;20448;-48
2022/08/03 00:15:04;;;;;;;0.77;0.67;;;;;;;20.08;71.55;100214.59;5020137;28;20980;-48
2022/08/03 00:17:36;;;;;;;1.27;1.17;;;;;;;20.22;71.76;100219.03;5033807;28;20483;-48
2022/08/03 00:20:18;;;;;;;1.10;1.00;;;;;;;20.00;73.07;100216.94;5021426;28;20929;-48
2022/08/03 00:22:44;;;;;;;1.03;0.80;;;;;;;20.08;72.94;100220.00;5020470;28;20970;-48
2022/08/03 00:25:11;;;;;;;1.10;1.00;;;;;;;20.26;72.22;100219.69;5026118;28;20477;-48
2022/08/03 00:27:37;;;;;;;1.20;1.00;;;;;;;20.34;72.28;100217.31;5027296;28;20448;-50
2022/08/03 00:30:04;;;;;;;2.33;1.10;;;;;;;20.33;72.35;100218.28;5029636;28;20454;-48
2022/08/03 00:32:31;;;;;;;0.80;0.70;;;;;;;20.10;73.88;100219.88;5038094;28;20543;-48
2022/08/03 00:34:58;;;;;;;19.70;1.50;;;;;;;20.02;72.93;100216.88;5021594;28;20819;-48
2022/08/03 00:37:25;;;;;;;6.30;0.90;;;;;;;19.87;73.40;100212.50;5031565;28;20452;-48
2022/08/03 00:40:11;;;;;;;2.13;0.80;;;;;;;20.04;72.94;100206.81;5023531;28;20457;-49
2022/08/03 00:42:55;;;;;;;9.73;1.70;;;;;;;20.06;73.00;100219.22;5026933;28;20471;-47
2022/08/03 00:45:27;;;;;;;7.17;0.80;;;;;;;19.71;73.99;100209.97;5026435;28;20503;-49
2022/08/03 00:47:54;;;;;;;3.50;1.87;;;;;;;19.80;74.39;100203.97;5020746;28;20448;-48
2022/08/03 00:50:23;;;;;;;1.93;1.77;;;;;;;19.85;73.92;100209.03;5020116;28;20452;-48
2022/08/03 00:52:52;;;;;;;1.73;1.63;;;;;;;19.70;74.45;100206.41;5025634;28;20456;-48
2022/08/03 00:55:19;;;;;;;1.10;1.10;;;;;;;19.91;73.73;100196.00;5026574;28;20481;-48
2022/08/03 00:57:46;;;;;;;0.93;0.80;;;;;;;19.70;74.54;100195.63;5021521;28;20459;-48
2022/08/03 01:00:16;;;;;;;0.97;0.87;;;;;;;19.73;74.74;100208.03;5019935;28;20459;-48
2022/08/03 01:02:43;;;;;;;2.40;2.10;;;;;;;19.76;75.04;100205.16;5024104;28;20934;-48
2022/08/03 01:05:10;;;;;;;1.60;0.97;;;;;;;19.71;75.35;100205.44;5026565;28;21004;-49
2022/08/03 01:07:55;;;;;;;2.03;1.20;;;;;;;19.55;75.95;100206.59;5022571;28;20444;-49
2022/08/03 01:10:38;;;;;;;1.07;0.87;;;;;;;19.53;76.47;100204.81;5019789;28;20454;-48
2022/08/03 01:13:16;;;;;;;0.90;0.83;;;;;;;19.35;76.54;100203.38;5020094;28;20449;-49
2022/08/03 01:16:28;;;;;;;2.60;0.77;;;;;;;19.26;76.90;100198.56;5031166;28;20475;-48
2022/08/03 01:19:24;;;;;;;1.00;0.90;;;;;;;19.22;76.71;100200.63;5013157;28;20483;-48
2022/08/03 01:22:25;;;;;;;1.20;1.13;;;;;;;19.43;76.20;100209.09;5026171;28;20818;-49
2022/08/03 01:25:13;;;;;;;0.80;0.60;;;;;;;19.31;76.78;100214.44;5024140;28;20522;-48
2022/08/03 01:27:58;;;;;;;1.07;0.70;;;;;;;19.09;77.55;100210.47;5026228;28;20456;-49
2022/08/03 01:30:34;;;;;;;3.00;1.10;;;;;;;19.18;77.66;100206.28;5033518;28;20443;-48
2022/08/03 01:33:04;;;;;;;2.10;1.10;;;;;;;19.04;78.35;100204.50;5029250;28;20458;-49
2022/08/03 01:35:47;;;;;;;0.80;0.70;;;;;;;18.97;78.26;100205.00;5025210;28;20521;-48
2022/08/03 01:38:38;;;;;;;1.27;1.00;;;;;;;19.14;77.84;100208.31;5031858;28;20801;-48
2022/08/03 01:41:29;;;;;;;2.43;0.80;;;;;;;18.98;77.95;100196.81;5019404;28;20454;-48
2022/08/03 01:43:58;;;;;;;0.80;0.70;;;;;;;18.92;77.91;100199.94;5030289;28;20498;-49
2022/08/03 01:46:48;;;;;;;12.70;1.37;;;;;;;18.90;77.87;100207.22;5028018;28;20995;-49
2022/08/03 01:49:16;;;;;;;1.00;0.80;;;;;;;18.78;79.05;100203.50;5019370;28;20465;-49
2022/08/03 01:51:46;;;;;;;1.10;1.00;;;;;;;18.89;78.80;100200.97;5020308;28;20448;-49
2022/08/03 01:54:33;;;;;;;0.63;0.60;;;;;;;18.68;79.62;100193.41;5021026;28;20479;-49
2022/08/03 01:57:01;;;;;;;1.17;0.73;;;;;;;18.74;79.36;100204.63;5018864;28;20452;-49
2022/08/03 01:59:31;;;;;;;6.10;1.03;;;;;;;18.56;79.60;100201.25;5023153;28;20445;-49
2022/08/03 02:01:59;;;;;;;0.93;0.80;;;;;;;18.51;79.60;100194.44;5026298;28;20459;-49
2022/08/03 02:04:47;;;;;;;1.03;0.93;;;;;;;18.53;79.62;100193.38;5025114;28;20499;-50
2022/08/03 02:07:15;;;;;;;0.70;0.60;;;;;;;18.48;79.79;100198.19;5012790;28;20462;-50
2022/08/03 02:09:45;;;;;;;7.73;0.93;;;;;;;18.44;80.59;100191.25;5025449;28;20968;-49
2022/08/03 02:12:13;;;;;;;2.07;0.90;;;;;;;18.38;80.39;100193.50;5025424;28;20450;-50
2022/08/03 02:14:43;;;;;;;2.70;1.33;;;;;;;18.70;80.09;100191.47;5025773;28;20467;-49
2022/08/03 02:17:11;;;;;;;0.80;0.70;;;;;;;18.77;79.26;100190.97;5031162;28;20826;-50
2022/08/03 02:19:39;;;;;;;1.00;1.00;;;;;;;18.88;79.21;100191.16;5018803;28;20455;-49
2022/08/03 02:22:09;;;;;;;1.50;1.20;;;;;;;18.61;81.45;100192.88;5023912;28;20452;-49
2022/08/03 02:24:36;;;;;;;1.13;1.03;;;;;;;18.66;81.69;100192.66;5025325;28;20491;-49
2022/08/03 02:27:09;;;;;;;1.27;1.17;;;;;;;18.77;81.40;100192.81;5021418;28;20451;-49
2022/08/03 02:29:39;;;;;;;0.83;0.83;;;;;;;18.81;80.91;100197.91;5019343;28;20436;-49
2022/08/03 02:32:11;;;;;;;1.40;1.30;;;;;;;18.98;80.73;100193.25;5032475;28;20532;-49
2022/08/03 02:34:39;;;;;;;1.03;0.83;;;;;;;18.92;81.03;100191.84;5018655;28;21037;-49
2022/08/03 02:37:09;;;;;;;5.63;1.03;;;;;;;18.82;81.42;100194.25;5032116;28;20953;-49
2022/08/03 02:39:38;;;;;;;17.60;1.57;;;;;;;18.69;81.55;100189.75;5030796;28;20848;-49
2022/08/03 02:42:08;;;;;;;0.80;0.80;;;;;;;18.56;81.96;100185.09;5029463;28;20452;-49
2022/08/03 02:44:36;;;;;;;1.20;1.10;;;;;;;18.46;82.71;100197.41;5029013;28;20496;-49
2022/08/03 02:47:08;;;;;;;1.43;0.97;;;;;;;18.59;82.32;100184.03;5033309;28;20469;-50
2022/08/03 02:49:37;;;;;;;1.10;0.83;;;;;;;18.74;81.40;100184.94;5024008;28;20443;-49
2022/08/03 02:52:20;;;;;;;1.80;1.30;;;;;;;18.49;81.47;100185.56;5022709;28;20478;-49
2022/08/03 02:54:49;;;;;;;1.40;1.30;;;;;;;18.63;81.55;100185.56;5025014;28;20487;-49
2022/08/03 02:57:18;;;;;;;6.60;1.00;;;;;;;18.45;82.26;100184.91;5029082;28;20510;-49
2022/08/03 02:59:46;;;;;;;1.07;1.07;;;;;;;18.35;83.53;100183.75;5027020;28;20447;-50
2022/08/03 03:02:14;;;;;;;0.83;0.83;;;;;;;18.30;82.88;100180.50;5022481;28;20483;-49
2022/08/03 03:04:43;;;;;;;1.00;0.90;;;;;;;18.24;83.08;100184.44;5023278;28;20875;-50
2022/08/03 03:07:30;;;;;;;1.00;0.90;;;;;;;18.39;83.03;100185.31;5024230;28;20530;-50
2022/08/03 03:10:16;;;;;;;1.10;1.00;;;;;;;18.25;83.33;100186.16;5021987;28;20453;-49
2022/08/03 03:12:45;;;;;;;1.93;1.83;;;;;;;18.13;83.44;100181.53;5023907;28;20448;-49
2022/08/03 03:15:12;;;;;;;1.77;1.67;;;;;;;18.27;83.25;100186.94;5031281;28;20471;-49
2022/08/03 03:17:39;;;;;;;0.80;0.80;;;;;;;18.09;84.16;100190.75;5035047;28;20535;-49
2022/08/03 03:20:07;;;;;;;0.80;0.60;;;;;;;18.07;84.18;100189.97;5021653;28;20451;-50
2022/08/03 03:22:34;;;;;;;1.13;1.03;;;;;;;18.11;84.43;100186.16;5021947;28;20452;-49
2022/08/03 03:25:01;;;;;;;1.00;0.90;;;;;;;18.04;84.65;100191.03;5021717;28;20495;-49
2022/08/03 03:27:29;;;;;;;1.60;1.50;;;;;;;18.16;84.73;100189.41;5021706;28;20851;-50
2022/08/03 03:29:56;;;;;;;14.93;1.10;;;;;;;18.04;84.78;100187.47;5034400;28;20823;-49
2022/08/03 03:32:25;;;;;;;1.33;1.00;;;;;;;18.00;84.51;100183.25;5034870;28;20458;-49
2022/08/03 03:34:52;;;;;;;1.93;1.30;;;;;;;17.86;85.06;100192.16;5027879;28;20849;-49
2022/08/03 03:37:19;;;;;;;1.27;1.17;;;;;;;18.03;84.85;100192.00;5028526;28;20963;-50
2022/08/03 03:39:45;;;;;;;1.23;1.13;;;;;;;17.85;85.02;100189.56;5027486;28;20453;-48
2022/08/03 03:42:12;;;;;;;1.30;1.20;;;;;;;17.80;85.25;100187.13;5028091;28;20471;-49
2022/08/03 03:44:39;;;;;;;1.43;1.10;;;;;;;17.75;85.32;100189.25;5022211;28;20574;-48
2022/08/03 03:47:06;;;;;;;1.20;1.10;;;;;;;17.83;84.62;100195.03;5033300;28;20945;-48
2022/08/03 03:49:32;;;;;;;1.00;0.90;;;;;;;17.70;85.34;100191.34;5021515;28;20452;-49
2022/08/03 03:51:59;;;;;;;1.80;0.97;;;;;;;17.72;85.50;100195.69;5021049;28;20942;-48
2022/08/03 03:54:26;;;;;;;8.03;1.37;;;;;;;17.55;85.56;100198.47;5026665;28;21004;-49
2022/08/03 03:56:54;;;;;;;0.80;0.73;;;;;;;17.54;85.81;100196.72;5027668;28;20515;-49
2022/08/03 03:59:21;;;;;;;1.07;1.00;;;;;;;17.70;85.25;100197.59;5023270;28;20965;-49
2022/08/03 04:01:47;;;;;;;1.00;0.90;;;;;;;17.73;85.18;100201.91;5020900;28;20449;-49
2022/08/03 04:12:42;;;;;;;1.67;1.57;;;;;;;17.53;86.11;100202.19;5025497;28;20448;-48
2022/08/03 04:15:20;;;;;;;7.60;1.00;;;;;;;17.62;86.10;100197.13;5020871;28;20494;-49
2022/08/03 04:17:49;;;;;;;5.43;1.57;;;;;;;17.69;85.88;100200.38;5033834;28;20466;-49
2022/08/03 04:20:18;;;;;;;1.83;1.70;;;;;;;17.78;85.08;100197.13;5021688;28;20452;-49
2022/08/03 04:22:48;;;;;;;18.83;1.47;;;;;;;17.68;85.24;100198.59;5020329;28;20456;-48
2022/08/03 04:25:18;;;;;;;1.27;1.17;;;;;;;17.75;85.61;100197.31;5025580;28;20493;-48
2022/08/03 04:27:49;;;;;;;1.33;1.23;;;;;;;17.69;86.40;100197.69;5027197;28;20458;-49
2022/08/03 04:30:37;;;;;;;2.40;2.17;;;;;;;17.75;85.92;100191.94;5026544;28;20444;-48
2022/08/03 04:33:05;;;;;;;1.00;0.80;;;;;;;17.81;85.71;100196.06;5028029;28;20448;-48
2022/08/03 04:35:35;;;;;;;1.30;1.20;;;;;;;18.80;81.22;100200.72;5026108;28;20460;-50
2022/08/03 04:38:24;;;;;;;1.17;1.07;;;;;;;17.86;85.30;100202.06;5022822;28;20651;-48
2022/08/03 04:40:51;;;;;;;1.20;1.03;;;;;;;17.85;85.30;100205.69;5020389;28;20460;-48
2022/08/03 04:43:21;;;;;;;1.70;1.60;;;;;;;17.54;87.46;100207.47;5023919;28;20502;-47
2022/08/03 04:45:49;;;;;;;1.30;1.20;;;;;;;17.68;86.99;100214.72;5030178;28;20492;-48
2022/08/03 04:48:16;;;;;;;1.27;1.10;;;;;;;17.84;86.73;100210.22;5033110;28;20458;-48
2022/08/03 04:50:43;;;;;;;3.23;1.20;;;;;;;18.04;86.65;100209.00;5021162;28;20486;-48
2022/08/03 04:53:09;;;;;;;7.53;1.67;;;;;;;18.11;86.21;100217.56;5022823;28;20448;-48
2022/08/03 04:55:36;;;;;;;5.70;1.73;;;;;;;18.83;83.74;100212.16;5026496;28;20855;-48
2022/08/03 04:58:03;;;;;;;2.80;1.30;;;;;;;19.83;79.37;100207.31;5023861;28;20454;-48
2022/08/03 05:00:29;;;;;;;43.50;2.20;;;;;;;20.76;75.62;100210.72;5019584;28;20469;-48
2022/08/03 05:02:56;;;;;;;1.23;1.13;;;;;;;21.31;73.81;100222.94;5022045;28;20455;-48
2022/08/03 05:05:23;;;;;;;2.50;1.03;;;;;;;22.03;70.95;100218.34;5026067;28;21020;-48
2022/08/03 05:07:49;;;;;;;2.80;1.30;;;;;;;22.48;69.07;100226.63;5024457;28;20451;-48
2022/08/03 05:10:16;;;;;;;1.60;1.50;;;;;;;22.54;68.76;100227.97;5019549;28;20448;-49
2022/08/03 05:12:46;;;;;;;1.30;1.20;;;;;;;22.82;67.85;100226.63;5021563;28;20467;-47
2022/08/03 05:15:13;;;;;;;1.40;1.30;;;;;;;22.84;68.08;100216.53;5028976;28;20850;-48
2022/08/03 05:17:39;;;;;;;1.20;1.10;;;;;;;23.13;67.38;100220.44;5032602;28;20444;-48
2022/08/03 05:20:06;;;;;;;1.70;1.60;;;;;;;23.61;64.87;100221.00;5019615;28;20538;-48
2022/08/03 05:22:33;;;;;;;1.60;1.50;;;;;;;23.75;64.24;100225.25;5021277;28;20531;-48
2022/08/03 05:25:01;;;;;;;2.83;1.00;;;;;;;23.42;64.40;100234.31;5026136;28;20504;-48
2022/08/03 05:27:27;;;;;;;1.77;1.67;;;;;;;23.42;64.49;100234.31;5025307;28;20455;-48
2022/08/03 05:29:54;;;;;;;1.47;1.37;;;;;;;23.61;64.63;100233.69;5019471;28;20962;-48
2022/08/03 05:32:20;;;;;;;1.23;0.97;;;;;;;23.71;63.87;100240.09;5033152;28;20454;-49
2022/08/03 05:34:47;;;;;;;1.00;0.80;;;;;;;23.51;64.89;100238.13;5019451;28;20475;-48
2022/08/03 05:37:14;;;;;;;3.03;1.10;;;;;;;24.05;63.39;100243.50;5030654;28;20830;-48
2022/08/03 05:39:40;;;;;;;2.00;1.90;;;;;;;24.18;63.19;100243.31;5019022;28;20451;-48
2022/08/03 05:42:06;;;;;;;1.23;1.13;;;;;;;24.49;62.38;100241.53;5019466;28;20448;-48
2022/08/03 05:44:33;;;;;;;1.57;1.47;;;;;;;24.14;63.09;100239.16;5025485;28;20530;-49
2022/08/03 05:46:59;;;;;;;4.10;2.27;;;;;;;24.84;60.95;100243.88;5030248;28;20459;-50
2022/08/03 05:49:26;;;;;;;2.27;2.17;;;;;;;24.86;61.09;100241.88;5019276;28;20934;-48
2022/08/03 05:51:52;;;;;;;1.97;1.87;;;;;;;25.12;60.19;100236.00;5018935;28;20987;-49
2022/08/03 05:54:36;;;;;;;5.70;2.13;;;;;;;24.89;60.69;100235.31;5023219;28;20479;-48
2022/08/03 05:57:23;;;;;;;2.00;1.70;;;;;;;24.67;60.80;100236.34;5025840;28;20455;-48
2022/08/03 05:59:49;;;;;;;1.57;1.47;;;;;;;24.55;61.67;100240.16;5024721;28;20947;-47
2022/08/03 06:02:24;;;;;;;7.10;2.13;;;;;;;24.65;61.50;100241.91;5019079;28;20455;-48
2022/08/03 06:04:50;;;;;;;1.63;1.53;;;;;;;25.20;59.61;100234.31;5018791;28;20499;-49
2022/08/03 06:07:17;;;;;;;1.63;1.53;;;;;;;25.05;59.87;100232.97;5025405;28;20838;-48
2022/08/03 06:09:43;;;;;;;1.10;1.10;;;;;;;25.21;59.70;100237.88;5025566;28;20447;-48
2022/08/03 06:12:30;;;;;;;1.57;1.47;;;;;;;25.60;58.82;100241.56;5025341;28;20447;-48
2022/08/03 06:14:59;;;;;;;4.93;1.77;;;;;;;25.35;58.84;100240.22;5022836;28;21006;-49
2022/08/03 06:17:26;;;;;;;1.90;1.80;;;;;;;25.39;58.78;100237.09;5036034;28;20451;-49
2022/08/03 06:20:03;;;;;;;7.50;1.20;;;;;;;25.71;57.79;100232.44;5022607;28;20964;-49
2022/08/03 06:22:29;;;;;;;1.73;1.63;;;;;;;25.62;57.87;100234.09;5024176;28;20448;-49
2022/08/03 06:24:57;;;;;;;1.57;1.47;;;;;;;25.63;58.27;100228.53;5029378;28;20492;-49
2022/08/03 06:27:29;;;;;;;1.47;1.37;;;;;;;25.68;58.26;100233.53;5029705;28;20450;-49
2022/08/03 06:30:03;;;;;;;1.30;1.20;;;;;;;25.65;57.90;100237.41;5016195;28;20460;-50
2022/08/03 06:32:30;;;;;;;1.00;0.90;;;;;;;25.51;58.47;100243.28;5029236;28;20479;-49
2022/08/03 06:34:56;;;;;;;1.57;1.47;;;;;;;25.59;58.72;100235.25;5023447;28;20470;-50
2022/08/03 06:37:23;;;;;;;4.77;1.90;;;;;;;25.00;59.04;100225.22;5034320;28;20455;-49
2022/08/03 06:39:49;;;;;;;1.33;1.23;;;;;;;25.45;59.11;100235.66;5028314;28;20449;-49
2022/08/03 06:42:16;;;;;;;1.47;1.37;;;;;;;25.30;59.28;100231.63;5029008;28;20816;-49
2022/08/03 06:44:45;;;;;;;1.27;1.17;;;;;;;25.01;59.68;100226.09;5023820;28;20499;-49
2022/08/03 06:47:12;;;;;;;1.37;1.27;;;;;;;25.21;59.13;100222.41;5033903;28;20454;-49
2022/08/03 06:49:39;;;;;;;3.40;1.80;;;;;;;25.72;58.32;100226.84;5024112;28;20473;-49
2022/08/03 06:52:06;;;;;;;1.70;1.40;;;;;;;25.36;58.34;100234.66;5022052;28;21012;-49
2022/08/03 06:54:33;;;;;;;1.90;1.80;;;;;;;25.29;59.05;100232.63;5027327;28;20476;-49
2022/08/03 06:56:59;;;;;;;1.13;1.03;;;;;;;25.18;59.87;100235.44;5028906;28;20451;-49
2022/08/03 06:59:26;;;;;;;1.50;1.40;;;;;;;25.82;57.67;100237.75;5024530;28;20451;-49
2022/08/03 07:02:12;;;;;;;1.57;1.47;;;;;;;26.30;56.31;100234.97;5022976;28;20451;-48
2022/08/03 07:04:46;;;;;;;0.80;0.60;;;;;;;25.76;56.67;100232.84;5023250;28;20507;-48
2022/08/03 07:07:12;;;;;;;1.90;1.57;;;;;;;25.86;57.34;100228.28;5028772;28;20459;-49
2022/08/03 07:09:39;;;;;;;1.30;1.20;;;;;;;25.77;57.64;100235.47;5028388;28;20447;-48
2022/08/03 07:12:07;;;;;;;0.90;0.90;;;;;;;25.56;58.10;100238.25;5021877;28;20555;-49
2022/08/03 07:14:33;;;;;;;2.17;1.97;;;;;;;25.82;57.79;100237.75;5021798;28;20506;-49
2022/08/03 07:17:00;;;;;;;1.00;0.80;;;;;;;25.90;57.33;100240.59;5035277;28;20448;-48
2022/08/03 07:19:30;;;;;;;1.60;1.50;;;;;;;25.82;56.87;100243.19;5021896;28;20452;-49
2022/08/03 07:21:56;;;;;;;1.30;1.20;;;;;;;26.11;56.86;100238.59;5027314;28;20464;-48
2022/08/03 07:24:28;;;;;;;1.00;0.90;;;;;;;26.17;56.80;100246.19;5027344;28;20463;-49
2022/08/03 07:26:54;;;;;;;1.30;1.20;;;;;;;26.07;56.29;100249.94;5023460;28;20487;-48
2022/08/03 07:29:20;;;;;;;1.50;1.40;;;;;;;26.60;55.84;100241.28;5021600;28;20463;-48
2022/08/03 07:31:47;;;;;;;1.33;0.80;;;;;;;26.22;55.71;100243.91;5034790;28;20448;-48
2022/08/03 07:34:14;;;;;;;0.83;0.80;;;;;;;26.51;55.16;100245.75;5021231;28;20472;-48
2022/08/03 07:36:40;;;;;;;2.30;1.57;;;;;;;26.64;53.99;100245.44;5033062;28;20983;-48
2022/08/03 07:39:06;;;;;;;1.13;1.03;;;;;;;27.30;52.63;100240.72;5033033;28;20452;-48
2022/08/03 07:41:44;;;;;;;3.60;1.90;;;;;;;26.99;53.25;100241.97;5024316;28;20444;-49
2022/08/03 07:44:11;;;;;;;1.10;1.00;;;;;;;27.10;53.49;100239.09;5021271;28;20542;-49
2022/08/03 07:46:37;;;;;;;1.40;1.30;;;;;;;27.55;51.69;100238.25;5034441;28;20491;-50
2022/08/03 07:49:04;;;;;;;2.90;1.43;;;;;;;27.26;52.34;100232.97;5021304;28;20454;-49
2022/08/03 07:51:30;;;;;;;2.00;1.83;;;;;;;27.29;52.87;100239.00;5024528;28;20818;-50
2022/08/03 07:53:57;;;;;;;3.40;1.40;;;;;;;27.34;53.00;100247.59;5027722;28;20454;-50
2022/08/03 07:56:24;;;;;;;6.13;0.90;;;;;;;28.18;50.91;100243.69;5025551;28;20452;-50
2022/08/03 07:58:51;;;;;;;2.07;0.93;;;;;;;27.89;51.44;100243.94;5021132;28;20426;-50
2022/08/03 08:01:18;;;;;;;10.73;1.83;;;;;;;28.08;51.05;100238.28;5023676;28;20455;-50
2022/08/03 08:03:48;;;;;;;2.70;1.67;;;;;;;28.01;51.39;100238.06;5027777;28;20459;-51
2022/08/03 08:06:19;;;;;;;2.33;2.13;;;;;;;27.97;50.69;100242.16;5026220;28;20930;-50
2022/08/03 08:08:47;;;;;;;1.97;1.10;;;;;;;28.37;49.99;100231.72;5020876;28;20450;-50
2022/08/03 08:11:13;;;;;;;1.00;0.90;;;;;;;28.87;49.18;100229.16;5022049;28;20456;-52
2022/08/03 08:13:40;;;;;;;1.43;1.33;;;;;;;28.62;49.16;100233.59;5027400;28;20938;-50
2022/08/03 08:16:06;;;;;;;1.60;1.50;;;;;;;28.27;49.20;100223.63;5026270;28;20996;-51
2022/08/03 08:18:33;;;;;;;2.27;2.17;;;;;;;28.36;48.70;100222.66;5028243;28;20457;-50
2022/08/03 08:21:02;;;;;;;1.27;0.90;;;;;;;28.53;48.91;100223.66;5026937;28;20449;-51
2022/08/03 08:23:28;;;;;;;1.57;1.43;;;;;;;28.99;48.28;100219.66;5020755;28;20456;-50
2022/08/03 08:26:09;;;;;;;1.33;0.87;;;;;;;29.61;46.76;100219.38;5020688;28;20524;-50
2022/08/03 08:28:35;;;;;;;1.40;1.30;;;;;;;29.12;47.21;100222.78;5025054;28;20448;-52
2022/08/03 08:31:02;;;;;;;1.07;0.97;;;;;;;29.53;46.15;100222.09;5029168;28;20444;-50
2022/08/03 08:33:28;;;;;;;2.20;1.07;;;;;;;29.29;46.13;100223.69;5024897;28;20427;-50
2022/08/03 08:36:15;;;;;;;3.70;2.00;;;;;;;29.15;46.21;100222.44;5030089;28;20467;-50
2022/08/03 08:38:43;;;;;;;1.43;1.33;;;;;;;29.23;44.79;100223.50;5033677;28;20427;-51
2022/08/03 08:41:11;;;;;;;0.80;0.70;;;;;;;29.22;44.66;100225.41;5020126;28;20430;-49
2022/08/03 08:43:38;;;;;;;1.43;1.10;;;;;;;29.72;44.35;100213.56;5020881;28;20427;-50
2022/08/03 08:46:07;;;;;;;10.33;1.90;;;;;;;29.17;44.38;100214.91;5032265;28;20495;-50
2022/08/03 08:48:35;;;;;;;0.70;0.60;;;;;;;29.53;44.60;100220.22;5020427;28;20433;-50
2022/08/03 08:51:02;;;;;;;3.30;1.53;;;;;;;29.88;43.46;100215.44;5026971;28;20433;-50
2022/08/03 08:53:29;;;;;;;4.20;0.73;;;;;;;30.59;42.09;100218.38;5026661;28;20437;-51
2022/08/03 08:56:01;;;;;;;2.80;1.57;;;;;;;30.60;42.68;100219.22;5020107;28;20494;-50
2022/08/03 08:58:29;;;;;;;10.73;1.00;;;;;;;31.14;40.96;100206.53;5020016;28;20914;-50
2022/08/03 09:00:56;;;;;;;0.70;0.70;;;;;;;30.56;41.25;100209.59;5025192;28;20430;-50
2022/08/03 09:03:22;;;;;;;1.77;1.67;;;;;;;30.57;41.57;100203.97;5026641;28;20952;-50
2022/08/03 09:05:58;;;;;;;1.10;0.90;;;;;;;30.54;41.11;100209.78;5021945;28;20498;-50
2022/08/03 09:08:24;;;;;;;2.10;0.93;;;;;;;30.42;40.35;100207.56;5019829;28;20804;-50
2022/08/03 09:10:51;;;;;;;1.23;1.13;;;;;;;30.64;41.33;100204.16;5023691;28;20452;-50
2022/08/03 09:13:18;;;;;;;0.93;0.90;;;;;;;31.16;41.00;100200.88;5027549;28;20459;-50
2022/08/03 09:15:45;;;;;;;1.13;1.03;;;;;;;31.41;38.76;100208.00;5023255;28;20438;-50
2022/08/03 09:18:31;;;;;;;0.77;0.77;;;;;;;31.77;38.52;100205.53;5028142;28;20460;-51
2022/08/03 09:21:20;;;;;;;0.67;0.63;;;;;;;31.86;36.64;100203.59;5025453;28;20422;-51
2022/08/03 09:24:03;;;;;;;1.83;0.93;;;;;;;31.72;37.19;100202.44;5022381;28;20440;-50
2022/08/03 09:26:35;;;;;;;1.77;1.50;;;;;;;32.13;36.16;100205.75;5018003;28;20534;-50
2022/08/03 09:29:07;;;;;;;1.10;1.00;;;;;;;32.05;36.67;100202.22;5020008;28;20462;-50
2022/08/03 09:31:42;;;;;;;2.30;1.17;;;;;;;32.58;35.68;100195.72;5020205;28;20523;-51
2022/08/03 09:34:12;;;;;;;0.80;0.80;;;;;;;32.29;35.52;100207.53;5020130;28;20536;-51
2022/08/03 09:36:45;;;;;;;1.10;1.00;;;;;;;32.45;34.99;100201.00;5030697;28;20460;-51
2022/08/03 09:39:16;;;;;;;1.20;1.10;;;;;;;32.03;34.75;100202.41;5029808;28;20454;-52
2022/08/03 09:41:45;;;;;;;0.90;0.80;;;;;;;32.44;35.15;100195.69;5021762;28;20549;-51
2022/08/03 09:44:12;;;;;;;12.70;1.27;;;;;;;32.59;35.15;100196.56;5019064;28;20450;-51
2022/08/03 09:46:55;;;;;;;0.97;0.93;;;;;;;32.22;34.64;100200.19;5031892;28;20488;-51
2022/08/03 09:49:23;;;;;;;2.70;1.20;;;;;;;32.29;35.00;100192.94;5019034;28;20972;-51
2022/08/03 09:51:50;;;;;;;1.30;1.20;;;;;;;32.66;34.90;100195.63;5019466;28;20453;-53
2022/08/03 09:54:36;;;;;;;1.00;0.90;;;;;;;32.58;34.10;100192.97;5021664;28;20500;-51
2022/08/03 09:57:03;;;;;;;1.23;0.80;;;;;;;32.60;33.87;100188.13;5019235;28;20425;-55
2022/08/03 09:59:32;;;;;;;1.47;0.80;;;;;;;32.77;33.47;100186.06;5023099;28;20427;-55
2022/08/03 10:01:59;;;;;;;0.60;0.53;;;;;;;32.76;34.37;100181.59;5025919;28;20543;-57
2022/08/03 10:04:26;;;;;;;1.30;1.20;;;;;;;32.63;32.43;100178.66;5022640;28;20558;-55
2022/08/03 10:07:03;;;;;;;0.80;0.80;;;;;;;32.82;32.13;100182.75;5015184;28;20993;-55
2022/08/03 10:09:29;;;;;;;6.13;0.70;;;;;;;32.51;32.08;100183.75;5024604;28;20453;-55
2022/08/03 10:11:57;;;;;;;1.10;1.00;;;;;;;32.71;32.82;100178.53;5019175;28;20430;-55
2022/08/03 10:14:29;;;;;;;7.87;1.13;;;;;;;32.78;32.61;100167.63;5020448;28;20451;-55
2022/08/03 10:16:55;;;;;;;0.93;0.83;;;;;;;32.19;33.61;100165.63;5031925;28;20418;-53
2022/08/03 10:19:22;;;;;;;0.80;0.63;;;;;;;32.49;34.42;100166.59;5019625;28;20452;-55
2022/08/03 10:21:52;;;;;;;1.07;0.97;;;;;;;32.59;33.53;100164.38;5025679;28;20424;-55
2022/08/03 10:24:24;;;;;;;2.97;1.23;;;;;;;33.09;32.85;100162.78;5025538;28;20438;-55
2022/08/03 10:26:52;;;;;;;11.37;0.93;;;;;;;33.53;32.97;100159.91;5020122;28;20487;-55
2022/08/03 10:29:26;;;;;;;1.40;1.30;;;;;;;33.68;31.93;100154.34;5018950;28;20950;-55
2022/08/03 10:31:57;;;;;;;1.00;0.90;;;;;;;32.83;32.88;100145.91;5032130;28;20533;-56
2022/08/03 10:34:34;;;;;;;0.97;0.87;;;;;;;32.70;32.93;100150.16;5019098;28;20446;-55
2022/08/03 10:37:06;;;;;;;1.53;1.00;;;;;;;33.07;32.90;100142.84;5030480;28;20461;-55
2022/08/03 10:39:34;;;;;;;1.57;1.47;;;;;;;32.91;32.93;100138.41;5026853;28;20419;-54
2022/08/03 10:42:02;;;;;;;0.97;0.83;;;;;;;32.75;32.87;100138.56;5024066;28;20451;-56
2022/08/03 10:44:37;;;;;;;1.20;1.10;;;;;;;32.97;32.74;100134.88;5018511;28;20447;-54
2022/08/03 10:47:05;;;;;;;1.00;0.80;;;;;;;33.17;32.44;100129.59;5031844;28;20462;-54
2022/08/03 10:49:32;;;;;;;3.47;1.70;;;;;;;33.61;32.46;100127.78;5019116;28;20425;-55
2022/08/03 10:52:01;;;;;;;4.83;1.00;;;;;;;33.29;32.36;100119.75;5018544;28;20457;-55
2022/08/03 10:57:52;;;;;;;1.00;0.70;;;;;;;32.80;32.32;100116.81;5019800;28;20476;-55
2022/08/03 11:00:26;;;;;;;1.70;0.80;;;;;;;33.01;32.61;100118.78;5022028;28;20936;-55
2022/08/03 11:03:07;;;;;;;0.73;0.70;;;;;;;33.13;32.33;100117.25;5025533;28;20485;-55
2022/08/03 11:05:36;;;;;;;1.40;1.30;;;;;;;32.99;32.31;100118.13;5028583;28;20579;-54
2022/08/03 11:08:24;;;;;;;1.10;1.00;;;;;;;33.52;32.41;100119.63;5027792;28;20825;-54
2022/08/03 11:10:54;;;;;;;1.43;0.93;;;;;;;33.67;32.53;100115.94;5024212;28;20418;-55
2022/08/03 11:13:23;;;;;;;2.80;1.73;;;;;;;33.94;31.58;100111.53;5022324;28;20419;-55
2022/08/03 11:15:53;;;;;;;2.20;0.80;;;;;;;33.81;31.38;100112.25;5033474;28;20447;-55
2022/08/03 11:18:28;;;;;;;1.73;0.80;;;;;;;34.18;30.55;100105.56;5030606;28;20426;-56
2022/08/03 11:20:58;;;;;;;0.90;0.80;;;;;;;34.24;30.94;100109.41;5026475;28;20825;-55
2022/08/03 11:23:45;;;;;;;9.90;1.03;;;;;;;34.16;31.10;100105.78;5022112;28;20443;-54
2022/08/03 11:26:32;;;;;;;0.80;0.73;;;;;;;34.06;30.50;100104.41;5021699;28;20527;-54
2022/08/03 11:29:29;;;;;;;3.53;0.93;;;;;;;34.03;30.95;100097.41;5024192;28;20947;-54
2022/08/03 11:31:56;;;;;;;0.83;0.83;;;;;;;34.27;30.31;100107.13;5024280;28;20494;-54
2022/08/03 11:34:23;;;;;;;1.03;0.77;;;;;;;34.25;30.40;100102.84;5021320;28;20504;-53
2022/08/03 11:37:20;;;;;;;1.10;1.00;;;;;;;34.54;30.51;100094.38;5033409;28;20434;-54
2022/08/03 11:39:49;;;;;;;0.60;0.60;;;;;;;34.49;29.83;100098.78;5022004;28;20920;-54
2022/08/03 11:42:25;;;;;;;0.80;0.80;;;;;;;34.13;29.77;100092.38;5021508;28;20452;-54
2022/08/03 11:44:54;;;;;;;1.80;0.90;;;;;;;33.68;31.16;100092.81;5025216;28;20447;-54
2022/08/03 11:47:21;;;;;;;1.30;1.03;;;;;;;33.66;30.98;100094.94;5031676;28;20474;-54
2022/08/03 11:49:50;;;;;;;2.67;0.80;;;;;;;33.83;31.36;100094.44;5024659;28;20460;-55
2022/08/03 11:52:18;;;;;;;2.53;0.60;;;;;;;33.86;30.39;100096.84;5021179;28;20451;-55